Time;durP1;ratioP1;P1;durP2;ratioP2;P2;SDS_P1;SDS_P2;PMS_P1;PMS_P2;Temp;Humidity;BMP_temperature;BMP_pressure;BME280_temperature;BME280_humidity;BME280_pressure;Samples;Min_cycle;Max_cycle;Signal;HPM_P1;HPM_P2
2023/12/15 00:02:22;;;;;;;;;;;3.00;99.90;;;;;;5057465;28;19925;-83
2023/12/15 00:04:48;;;;;;;;;;;3.00;99.90;;;;;;5053020;28;19952;-84
2023/12/15 00:07:13;;;;;;;;;;;3.00;99.90;;;;;;5054167;28;20021;-81
2023/12/15 00:09:39;;;;;;;;;;;3.00;99.90;;;;;;5035446;28;20443;-81
2023/12/15 00:12:05;;;;;;;;;;;3.00;99.90;;;;;;5052535;28;19940;-81
2023/12/15 00:14:30;;;;;;;;;;;3.00;99.90;;;;;;5054788;28;19936;-81
2023/12/15 00:16:56;;;;;;;;;;;3.00;99.90;;;;;;5052348;28;19920;-82
2023/12/15 00:19:21;;;;;;;;;;;3.00;99.90;;;;;;5054033;28;19920;-82
2023/12/15 00:21:47;;;;;;;;;;;3.00;99.90;;;;;;5041281;28;19924;-83
2023/12/15 00:24:13;;;;;;;;;;;3.00;99.90;;;;;;5057473;28;19912;-83
2023/12/15 00:26:38;;;;;;;;;;;3.00;99.90;;;;;;5063129;28;20391;-82
2023/12/15 00:29:04;;;;;;;;;;;3.00;99.90;;;;;;5056200;28;20411;-82
2023/12/15 00:31:29;;;;;;;;;;;2.90;99.90;;;;;;5059176;28;19917;-82
2023/12/15 00:33:55;;;;;;;;;;;2.90;99.90;;;;;;5035221;28;19917;-83
2023/12/15 00:36:21;;;;;;;;;;;2.80;99.90;;;;;;5036837;28;19925;-82
2023/12/15 00:38:47;;;;;;;;;;;2.80;99.90;;;;;;5053314;28;19940;-82
2023/12/15 00:41:13;;;;;;;;;;;2.80;99.90;;;;;;5053915;28;19924;-83
2023/12/15 00:43:38;;;;;;;;;;;2.70;99.90;;;;;;5053769;28;19913;-82
2023/12/15 00:46:04;;;;;;;;;;;2.70;99.90;;;;;;5046559;28;19928;-82
2023/12/15 00:48:30;;;;;;;;;;;2.60;99.90;;;;;;5054929;28;19913;-82
2023/12/15 00:50:56;;;;;;;;;;;2.60;99.90;;;;;;5038245;28;19924;-83
2023/12/15 00:53:21;;;;;;;;;;;2.60;99.90;;;;;;5053568;28;19921;-82
2023/12/15 00:55:47;;;;;;;;;;;2.50;99.90;;;;;;5054604;28;20280;-81
2023/12/15 00:58:16;;;;;;;;;;;2.50;99.90;;;;;;5054491;28;19916;-82
2023/12/15 01:00:41;;;;;;;;;;;2.50;99.90;;;;;;5057163;28;20218;-82
2023/12/15 01:03:07;;;;;;;;;;;2.40;99.90;;;;;;5053858;28;20027;-82
2023/12/15 01:05:32;;;;;;;;;;;2.40;99.90;;;;;;5056886;28;19928;-82
2023/12/15 01:07:58;;;;;;;;;;;2.40;99.90;;;;;;5055947;28;20381;-81
2023/12/15 01:10:24;;;;;;;;;;;2.40;99.90;;;;;;5052767;28;19917;-82
2023/12/15 01:12:49;;;;;;;;;;;2.30;99.90;;;;;;5057019;28;20470;-82
2023/12/15 01:15:15;;;;;;;;;;;2.30;99.90;;;;;;5053734;28;19917;-81
2023/12/15 01:17:41;;;;;;;;;;;2.20;99.90;;;;;;5053335;28;19917;-80
2023/12/15 01:20:07;;;;;;;;;;;2.20;99.90;;;;;;5037783;28;20420;-82
2023/12/15 01:22:32;;;;;;;;;;;2.10;99.90;;;;;;5065435;28;19936;-82
2023/12/15 01:24:58;;;;;;;;;;;2.10;99.90;;;;;;5051178;28;19920;-82
2023/12/15 01:27:23;;;;;;;;;;;2.00;99.90;;;;;;5055570;28;20022;-82
2023/12/15 01:29:49;;;;;;;;;;;2.00;99.90;;;;;;5054277;28;19971;-82
2023/12/15 01:32:15;;;;;;;;;;;2.00;99.90;;;;;;5057709;28;19924;-82
2023/12/15 01:34:40;;;;;;;;;;;1.90;99.90;;;;;;5057204;28;19924;-82
2023/12/15 01:37:07;;;;;;;;;;;1.90;99.90;;;;;;5038727;28;19923;-81
2023/12/15 01:39:32;;;;;;;;;;;1.80;99.90;;;;;;5057936;28;19917;-81
2023/12/15 01:41:58;;;;;;;;;;;1.80;99.90;;;;;;5040355;28;19925;-82
2023/12/15 01:44:23;;;;;;;;;;;1.80;99.90;;;;;;5054726;28;19916;-83
2023/12/15 01:46:49;;;;;;;;;;;1.70;99.90;;;;;;5061422;28;19924;-82
2023/12/15 01:49:15;;;;;;;;;;;1.70;99.90;;;;;;5038181;28;20307;-81
2023/12/15 01:51:41;;;;;;;;;;;1.70;99.90;;;;;;5062042;28;20518;-83
2023/12/15 01:54:07;;;;;;;;;;;1.60;99.90;;;;;;5039412;28;19917;-83
2023/12/15 01:56:32;;;;;;;;;;;1.60;99.90;;;;;;5059372;28;19920;-81
2023/12/15 01:58:58;;;;;;;;;;;1.50;99.90;;;;;;5055511;28;19921;-81
2023/12/15 02:01:24;;;;;;;;;;;1.50;99.90;;;;;;5061820;28;19913;-81
2023/12/15 02:03:49;;;;;;;;;;;1.50;99.90;;;;;;5058238;28;19924;-82
2023/12/15 02:06:15;;;;;;;;;;;1.50;99.90;;;;;;5061697;28;19913;-82
2023/12/15 02:08:44;;;;;;;;;;;1.40;99.90;;;;;;5058631;28;19948;-81
2023/12/15 02:11:09;;;;;;;;;;;1.40;99.90;;;;;;5062780;28;20436;-81
2023/12/15 02:13:35;;;;;;;;;;;1.30;99.90;;;;;;5059411;28;19912;-83
2023/12/15 02:16:01;;;;;;;;;;;1.30;99.90;;;;;;5060187;28;20361;-83
2023/12/15 02:18:26;;;;;;;;;;;1.30;99.90;;;;;;5057457;28;19929;-82
2023/12/15 02:20:52;;;;;;;;;;;1.20;99.90;;;;;;5059680;28;19920;-80
2023/12/15 02:23:17;;;;;;;;;;;1.20;99.90;;;;;;5054493;28;19927;-81
2023/12/15 02:25:43;;;;;;;;;;;1.20;99.90;;;;;;5055483;28;19917;-81
2023/12/15 02:28:09;;;;;;;;;;;1.10;99.90;;;;;;5059359;28;19925;-80
2023/12/15 02:30:34;;;;;;;;;;;1.10;99.90;;;;;;5059686;28;19917;-79
2023/12/15 02:33:00;;;;;;;;;;;1.10;99.90;;;;;;5060265;28;20393;-80
2023/12/15 02:35:25;;;;;;;;;;;1.00;99.90;;;;;;5058324;28;19924;-79
2023/12/15 02:37:51;;;;;;;;;;;1.00;99.90;;;;;;5064572;28;19928;-79
2023/12/15 02:40:17;;;;;;;;;;;0.90;99.90;;;;;;5057297;28;19909;-80
2023/12/15 02:42:43;;;;;;;;;;;0.90;99.90;;;;;;5056881;28;19925;-80
2023/12/15 02:45:08;;;;;;;;;;;0.90;99.90;;;;;;5059076;28;19939;-80
2023/12/15 02:47:34;;;;;;;;;;;0.90;99.90;;;;;;5063709;28;19924;-79
2023/12/15 02:50:00;;;;;;;;;;;0.80;99.90;;;;;;5054989;28;19916;-81
2023/12/15 02:52:25;;;;;;;;;;;0.80;99.90;;;;;;5062110;28;19913;-80
2023/12/15 02:54:51;;;;;;;;;;;0.80;99.90;;;;;;5057382;28;19920;-79
2023/12/15 02:57:16;;;;;;;;;;;0.80;99.90;;;;;;5061898;28;19912;-79
2023/12/15 02:59:42;;;;;;;;;;;0.80;99.90;;;;;;5058025;28;19983;-81
2023/12/15 03:02:08;;;;;;;;;;;0.90;99.90;;;;;;5062105;28;19921;-80
2023/12/15 03:04:33;;;;;;;;;;;0.90;99.90;;;;;;5057714;28;19965;-81
2023/12/15 03:06:59;;;;;;;;;;;0.90;99.90;;;;;;5058096;28;20396;-80
2023/12/15 03:09:24;;;;;;;;;;;1.00;99.90;;;;;;5057679;28;20210;-80
2023/12/15 03:11:50;;;;;;;;;;;1.00;99.90;;;;;;5053694;28;19921;-80
2023/12/15 03:14:16;;;;;;;;;;;1.00;99.90;;;;;;5053687;28;19917;-79
2023/12/15 03:16:41;;;;;;;;;;;1.00;99.90;;;;;;5057687;28;20172;-79
2023/12/15 03:19:07;;;;;;;;;;;1.00;99.90;;;;;;5056017;28;20059;-81
2023/12/15 03:21:33;;;;;;;;;;;1.10;99.90;;;;;;5056372;28;19932;-80
2023/12/15 03:23:58;;;;;;;;;;;1.10;99.90;;;;;;5055964;28;19966;-79
2023/12/15 03:26:24;;;;;;;;;;;1.00;99.90;;;;;;5054302;28;19955;-80
2023/12/15 03:28:50;;;;;;;;;;;1.00;99.90;;;;;;5058036;28;19967;-82
2023/12/15 03:31:15;;;;;;;;;;;1.00;99.90;;;;;;5054064;28;20418;-81
2023/12/15 03:33:41;;;;;;;;;;;0.90;99.90;;;;;;5036688;28;20581;-82
2023/12/15 03:36:07;;;;;;;;;;;0.90;99.90;;;;;;5058670;28;20554;-84
2023/12/15 03:38:34;;;;;;;;;;;0.80;99.90;;;;;;5057791;28;19916;-83
2023/12/15 03:41:00;;;;;;;;;;;0.80;99.90;;;;;;5062310;28;20436;-83
2023/12/15 03:43:26;;;;;;;;;;;0.70;99.90;;;;;;5039750;28;19925;-82
2023/12/15 03:45:51;;;;;;;;;;;0.70;99.90;;;;;;5060652;28;19947;-83
2023/12/15 03:48:17;;;;;;;;;;;0.70;99.90;;;;;;5057468;28;20003;-82
2023/12/15 03:50:43;;;;;;;;;;;0.60;99.90;;;;;;5059410;28;19936;-82
2023/12/15 03:53:08;;;;;;;;;;;0.60;99.90;;;;;;5057369;28;19980;-80
2023/12/15 03:55:34;;;;;;;;;;;0.60;99.90;;;;;;5056478;28;19916;-82
2023/12/15 03:58:00;;;;;;;;;;;0.60;99.90;;;;;;5055886;28;19917;-82
2023/12/15 04:00:26;;;;;;;;;;;0.60;99.90;;;;;;5058774;28;19921;-83
2023/12/15 04:02:52;;;;;;;;;;;0.60;99.90;;;;;;5054811;28;19921;-81
2023/12/15 04:05:19;;;;;;;;;;;0.60;99.90;;;;;;5055469;28;19917;-79
2023/12/15 04:07:45;;;;;;;;;;;0.50;99.90;;;;;;5058383;28;20292;-82
2023/12/15 04:10:10;;;;;;;;;;;0.50;99.90;;;;;;5054678;28;19923;-81
2023/12/15 04:12:36;;;;;;;;;;;0.50;99.90;;;;;;5061859;28;19959;-81
2023/12/15 04:15:02;;;;;;;;;;;0.60;99.90;;;;;;5054930;28;20726;-82
2023/12/15 04:17:28;;;;;;;;;;;0.60;99.90;;;;;;5054268;28;19956;-83
2023/12/15 04:20:05;;;;;;;;;;;0.60;99.90;;;;;;5056460;28;19917;-82
2023/12/15 04:23:04;;;;;;;;;;;0.60;99.90;;;;;;5060362;28;19995;-82
2023/12/15 04:25:31;;;;;;;;;;;0.60;99.90;;;;;;5048198;28;19921;-84
2023/12/15 04:28:13;;;;;;;;;;;0.70;99.90;;;;;;5057021;28;19955;-85
2023/12/15 04:30:38;;;;;;;;;;;0.60;99.90;;;;;;5053207;28;19916;-83
2023/12/15 04:33:04;;;;;;;;;;;0.60;99.90;;;;;;5054437;28;19919;-84
2023/12/15 04:35:30;;;;;;;;;;;0.60;99.90;;;;;;5054733;28;19952;-83
2023/12/15 04:37:55;;;;;;;;;;;0.60;99.90;;;;;;5054145;28;19986;-80
2023/12/15 04:40:21;;;;;;;;;;;0.60;99.90;;;;;;5054879;28;19916;-84
2023/12/15 04:42:46;;;;;;;;;;;0.50;99.90;;;;;;5050555;28;19917;-84
2023/12/15 04:45:12;;;;;;;;;;;0.60;99.90;;;;;;5056437;28;19962;-83
2023/12/15 04:47:38;;;;;;;;;;;0.50;99.90;;;;;;5054870;28;19924;-81
2023/12/15 04:50:04;;;;;;;;;;;0.50;99.90;;;;;;5054083;28;19917;-82
2023/12/15 04:52:29;;;;;;;;;;;0.50;99.90;;;;;;5043541;28;19917;-82
2023/12/15 04:54:55;;;;;;;;;;;0.50;99.90;;;;;;5052929;28;20019;-83
2023/12/15 04:57:21;;;;;;;;;;;0.50;99.90;;;;;;5054054;28;20368;-82
2023/12/15 04:59:46;;;;;;;;;;;0.50;99.90;;;;;;5058329;28;19955;-81
2023/12/15 05:02:12;;;;;;;;;;;0.50;99.90;;;;;;5054703;28;19920;-81
2023/12/15 05:04:38;;;;;;;;;;;0.60;99.90;;;;;;5048240;28;19917;-81
2023/12/15 05:07:04;;;;;;;;;;;0.60;99.90;;;;;;5054570;28;19917;-84
2023/12/15 05:09:29;;;;;;;;;;;0.60;99.90;;;;;;5049476;28;19947;-84
2023/12/15 05:11:55;;;;;;;;;;;0.70;99.90;;;;;;5055553;28;19962;-82
2023/12/15 05:14:21;;;;;;;;;;;0.80;99.90;;;;;;5054090;28;19916;-82
2023/12/15 05:16:46;;;;;;;;;;;0.80;99.90;;;;;;5057088;28;19991;-81
2023/12/15 05:19:12;;;;;;;;;;;0.80;99.90;;;;;;5051293;28;19941;-84
2023/12/15 05:21:37;;;;;;;;;;;0.80;99.90;;;;;;5055112;28;19996;-82
2023/12/15 05:24:03;;;;;;;;;;;0.90;99.90;;;;;;5053321;28;19917;-82
2023/12/15 05:26:29;;;;;;;;;;;1.00;99.90;;;;;;5055031;28;19925;-81
2023/12/15 05:28:54;;;;;;;;;;;1.00;99.90;;;;;;5054464;28;19967;-81
2023/12/15 05:31:20;;;;;;;;;;;0.90;99.90;;;;;;5056215;28;19992;-82
2023/12/15 05:33:46;;;;;;;;;;;1.00;99.90;;;;;;5051310;28;19944;-80
2023/12/15 05:36:21;;;;;;;;;;;0.90;99.90;;;;;;5054467;28;20019;-81
2023/12/15 05:38:47;;;;;;;;;;;0.90;99.90;;;;;;5058103;28;19913;-81
2023/12/15 05:41:13;;;;;;;;;;;1.00;99.90;;;;;;5054300;28;19932;-81
2023/12/15 05:43:38;;;;;;;;;;;0.90;99.90;;;;;;5052251;28;19921;-79
2023/12/15 05:46:04;;;;;;;;;;;0.90;99.90;;;;;;5062961;28;19921;-79
2023/12/15 05:48:30;;;;;;;;;;;0.90;99.90;;;;;;5057385;28;19920;-81
2023/12/15 05:50:55;;;;;;;;;;;1.00;99.90;;;;;;5054742;28;19924;-78
2023/12/15 05:53:21;;;;;;;;;;;1.00;99.90;;;;;;5053113;28;19920;-81
2023/12/15 05:55:47;;;;;;;;;;;1.00;99.90;;;;;;5060183;28;19917;-82
2023/12/15 05:58:13;;;;;;;;;;;1.00;99.90;;;;;;5053749;28;19947;-79
2023/12/15 06:00:39;;;;;;;;;;;1.10;99.90;;;;;;5054143;28;19948;-80
2023/12/15 06:03:04;;;;;;;;;;;1.10;99.90;;;;;;5054456;28;19928;-78
2023/12/15 06:05:34;;;;;;;;;;;1.10;99.90;;;;;;5056729;28;19936;-82
2023/12/15 06:08:00;;;;;;;;;;;1.00;99.90;;;;;;5056378;28;20009;-81
2023/12/15 06:10:26;;;;;;;;;;;1.00;99.90;;;;;;5056224;28;19924;-81
2023/12/15 06:12:52;;;;;;;;;;;1.00;99.90;;;;;;5053986;28;20137;-81
2023/12/15 06:15:17;;;;;;;;;;;1.00;99.90;;;;;;5052680;28;20335;-82
2023/12/15 06:17:43;;;;;;;;;;;1.10;99.90;;;;;;5060594;28;19916;-81
2023/12/15 06:20:10;;;;;;;;;;;1.10;99.90;;;;;;5054505;28;19974;-81
2023/12/15 06:22:36;;;;;;;;;;;1.10;99.90;;;;;;5058265;28;19929;-81
2023/12/15 06:25:02;;;;;;;;;;;1.10;99.90;;;;;;5039433;28;19935;-82
2023/12/15 06:27:31;;;;;;;;;;;1.10;99.90;;;;;;5036533;28;19928;-80
2023/12/15 06:29:57;;;;;;;;;;;1.10;99.90;;;;;;5050331;28;19918;-82
2023/12/15 06:32:22;;;;;;;;;;;1.20;99.90;;;;;;5060897;28;19928;-81
2023/12/15 06:34:48;;;;;;;;;;;1.20;99.90;;;;;;5058748;28;19916;-81
2023/12/15 06:37:13;;;;;;;;;;;1.20;99.90;;;;;;5061604;28;19962;-82
2023/12/15 06:39:39;;;;;;;;;;;1.20;99.90;;;;;;5061023;28;19975;-80
2023/12/15 06:42:04;;;;;;;;;;;1.20;99.90;;;;;;5066395;28;19932;-81
2023/12/15 06:44:31;;;;;;;;;;;1.20;99.90;;;;;;5064234;28;20490;-81
2023/12/15 06:46:56;;;;;;;;;;;1.20;99.90;;;;;;5062890;28;19917;-81
2023/12/15 06:49:30;;;;;;;;;;;1.10;99.90;;;;;;5059638;28;20388;-80
2023/12/15 06:51:59;;;;;;;;;;;1.10;99.90;;;;;;5059224;28;20291;-83
2023/12/15 06:54:25;;;;;;;;;;;1.10;99.90;;;;;;5057091;28;19913;-82
2023/12/15 06:56:50;;;;;;;;;;;1.10;99.90;;;;;;5057817;28;19915;-83
2023/12/15 06:59:16;;;;;;;;;;;1.20;99.90;;;;;;5066628;28;19987;-81
2023/12/15 07:01:41;;;;;;;;;;;1.20;99.90;;;;;;5069518;28;20331;-82
2023/12/15 07:04:07;;;;;;;;;;;1.20;99.90;;;;;;5061920;28;19971;-83
2023/12/15 07:06:33;;;;;;;;;;;1.20;99.90;;;;;;5065961;28;19920;-81
2023/12/15 07:08:58;;;;;;;;;;;1.20;99.90;;;;;;5040809;28;20312;-83
2023/12/15 07:11:24;;;;;;;;;;;1.20;99.90;;;;;;5063317;28;19924;-82
2023/12/15 07:13:50;;;;;;;;;;;1.30;99.90;;;;;;5058620;28;19924;-80
2023/12/15 07:16:15;;;;;;;;;;;1.30;99.90;;;;;;5065356;28;19920;-82
2023/12/15 07:18:41;;;;;;;;;;;1.20;99.90;;;;;;5063508;28;19967;-83
2023/12/15 07:21:07;;;;;;;;;;;1.20;99.90;;;;;;5059695;28;19947;-79
2023/12/15 07:23:34;;;;;;;;;;;1.30;99.90;;;;;;5059581;28;19924;-83
2023/12/15 07:26:00;;;;;;;;;;;1.20;99.90;;;;;;5040720;28;19920;-83
2023/12/15 07:28:25;;;;;;;;;;;1.30;99.90;;;;;;5061445;28;19927;-82
2023/12/15 07:30:51;;;;;;;;;;;1.30;99.90;;;;;;5059574;28;19908;-82
2023/12/15 07:33:16;;;;;;;;;;;1.30;99.90;;;;;;5054647;28;19921;-82
2023/12/15 07:35:42;;;;;;;;;;;1.20;99.90;;;;;;5061197;28;20004;-82
2023/12/15 07:38:09;;;;;;;;;;;1.20;99.90;;;;;;5059424;28;20292;-79
2023/12/15 07:40:35;;;;;;;;;;;1.20;99.90;;;;;;5055485;28;19992;-83
2023/12/15 07:43:00;;;;;;;;;;;1.20;99.90;;;;;;5056315;28;19960;-81
2023/12/15 07:45:26;;;;;;;;;;;1.20;99.90;;;;;;5060838;28;19923;-81
2023/12/15 07:47:52;;;;;;;;;;;1.20;99.90;;;;;;5040890;28;20490;-81
2023/12/15 07:50:24;;;;;;;;;;;1.20;99.90;;;;;;5050024;28;19921;-79
2023/12/15 07:52:49;;;;;;;;;;;1.20;99.90;;;;;;5039023;28;19912;-81
2023/12/15 07:55:17;;;;;;;;;;;1.20;99.90;;;;;;5058337;28;19913;-81
2023/12/15 07:57:43;;;;;;;;;;;1.30;99.90;;;;;;5059781;28;19917;-82
2023/12/15 08:00:12;;;;;;;;;;;1.30;99.90;;;;;;5054239;28;20023;-81
2023/12/15 08:02:39;;;;;;;;;;;1.30;99.90;;;;;;5050130;28;19920;-82
2023/12/15 08:05:05;;;;;;;;;;;1.30;99.90;;;;;;5032904;28;19920;-83
2023/12/15 08:07:31;;;;;;;;;;;1.40;99.90;;;;;;5052503;28;20411;-82
2023/12/15 08:09:58;;;;;;;;;;;1.40;99.90;;;;;;5043063;28;19950;-82
2023/12/15 08:12:23;;;;;;;;;;;1.40;99.90;;;;;;5047066;28;19921;-82
2023/12/15 08:14:49;;;;;;;;;;;1.50;99.90;;;;;;5053295;28;19917;-79
2023/12/15 08:17:15;;;;;;;;;;;1.50;99.90;;;;;;5052511;28;20073;-81
2023/12/15 08:19:41;;;;;;;;;;;1.50;99.90;;;;;;5051589;28;19932;-81
2023/12/15 08:22:06;;;;;;;;;;;1.60;99.90;;;;;;5055927;28;20379;-81
2023/12/15 08:24:32;;;;;;;;;;;1.60;99.90;;;;;;5058942;28;19946;-82
2023/12/15 08:26:58;;;;;;;;;;;1.60;99.90;;;;;;5058841;28;19970;-81
2023/12/15 08:29:24;;;;;;;;;;;1.60;99.90;;;;;;5033332;28;19960;-81
2023/12/15 08:31:49;;;;;;;;;;;1.70;99.90;;;;;;5061585;28;19917;-82
2023/12/15 08:34:16;;;;;;;;;;;1.70;99.90;;;;;;5052452;28;19959;-82
2023/12/15 08:36:41;;;;;;;;;;;1.80;99.90;;;;;;5042957;28;19969;-81
2023/12/15 08:39:07;;;;;;;;;;;1.80;99.90;;;;;;5061999;28;20372;-81
2023/12/15 08:41:32;;;;;;;;;;;1.80;99.90;;;;;;5068403;28;19925;-81
2023/12/15 08:43:58;;;;;;;;;;;1.80;99.90;;;;;;5069166;28;19932;-82
2023/12/15 08:46:24;;;;;;;;;;;1.70;99.90;;;;;;5066917;28;19931;-82
2023/12/15 08:48:51;;;;;;;;;;;1.80;99.90;;;;;;5062393;28;19916;-81
2023/12/15 08:51:17;;;;;;;;;;;1.70;99.90;;;;;;5062031;28;19924;-81
2023/12/15 08:53:42;;;;;;;;;;;1.80;99.90;;;;;;5058622;28;19970;-81
2023/12/15 08:56:09;;;;;;;;;;;1.80;99.90;;;;;;5057714;28;19924;-80
2023/12/15 08:58:35;;;;;;;;;;;1.90;99.90;;;;;;5056629;28;19917;-81
2023/12/15 09:01:02;;;;;;;;;;;1.90;99.90;;;;;;5062542;28;19917;-81
2023/12/15 09:03:28;;;;;;;;;;;1.90;99.90;;;;;;5045962;28;20003;-82
2023/12/15 09:05:54;;;;;;;;;;;1.90;99.90;;;;;;5053128;28;20050;-82
2023/12/15 09:08:19;;;;;;;;;;;1.90;99.90;;;;;;5053653;28;19943;-80
2023/12/15 09:10:50;;;;;;;;;;;2.00;99.90;;;;;;5057687;28;19913;-81
2023/12/15 09:13:16;;;;;;;;;;;2.00;99.90;;;;;;5049893;28;19978;-82
2023/12/15 09:15:42;;;;;;;;;;;2.00;99.90;;;;;;5057123;28;19917;-84
2023/12/15 09:18:08;;;;;;;;;;;2.00;99.90;;;;;;5055772;28;19971;-81
2023/12/15 09:20:33;;;;;;;;;;;2.00;99.90;;;;;;5059251;28;20007;-83
2023/12/15 09:22:59;;;;;;;;;;;2.10;99.90;;;;;;5069052;28;19964;-83
2023/12/15 09:25:25;;;;;;;;;;;2.10;99.90;;;;;;5064785;28;19924;-81
2023/12/15 09:27:50;;;;;;;;;;;2.20;99.90;;;;;;5065691;28;20022;-82
2023/12/15 09:30:16;;;;;;;;;;;2.20;99.90;;;;;;5051510;28;19917;-82
2023/12/15 09:32:42;;;;;;;;;;;2.20;99.90;;;;;;5054351;28;19936;-81
2023/12/15 09:35:08;;;;;;;;;;;2.30;99.90;;;;;;5055066;28;19920;-80
2023/12/15 09:37:34;;;;;;;;;;;2.30;99.90;;;;;;5051921;28;19917;-82
2023/12/15 09:39:59;;;;;;;;;;;2.30;99.90;;;;;;5051755;28;19984;-80
2023/12/15 09:42:26;;;;;;;;;;;2.40;99.90;;;;;;5055895;28;19955;-83
2023/12/15 09:44:52;;;;;;;;;;;2.40;99.90;;;;;;5056190;28;19913;-81
2023/12/15 09:47:20;;;;;;;;;;;2.40;99.90;;;;;;5049546;28;19916;-81
2023/12/15 09:49:47;;;;;;;;;;;2.50;99.90;;;;;;5051373;28;19917;-81
2023/12/15 09:52:14;;;;;;;;;;;2.50;99.90;;;;;;5054344;28;20012;-81
2023/12/15 09:54:40;;;;;;;;;;;2.50;99.90;;;;;;5056691;28;19966;-81
2023/12/15 09:57:07;;;;;;;;;;;2.50;99.90;;;;;;5050583;28;19913;-81
2023/12/15 09:59:34;;;;;;;;;;;2.50;99.90;;;;;;5053645;28;19912;-82
2023/12/15 10:02:00;;;;;;;;;;;2.60;99.90;;;;;;5056141;28;19967;-82
2023/12/15 10:04:26;;;;;;;;;;;2.60;99.90;;;;;;5055680;28;19918;-82
2023/12/15 10:06:52;;;;;;;;;;;2.60;99.90;;;;;;5055807;28;20006;-82
2023/12/15 10:09:18;;;;;;;;;;;2.60;99.90;;;;;;5063006;28;19917;-83
2023/12/15 10:11:46;;;;;;;;;;;2.60;99.90;;;;;;5045710;28;19940;-83
2023/12/15 10:14:14;;;;;;;;;;;2.70;99.90;;;;;;5050528;28;19917;-83
2023/12/15 10:16:40;;;;;;;;;;;2.70;99.90;;;;;;5061213;28;19917;-82
2023/12/15 10:19:06;;;;;;;;;;;2.60;99.90;;;;;;5057572;28;20381;-82
2023/12/15 10:21:32;;;;;;;;;;;2.60;99.90;;;;;;5058853;28;20404;-84
2023/12/15 10:23:59;;;;;;;;;;;2.60;99.90;;;;;;5059703;28;19916;-83
2023/12/15 10:26:26;;;;;;;;;;;2.60;99.90;;;;;;5060289;28;19917;-83
2023/12/15 10:28:53;;;;;;;;;;;2.60;99.90;;;;;;5060077;28;19925;-82
2023/12/15 10:31:18;;;;;;;;;;;2.60;99.90;;;;;;5056586;28;19913;-83
2023/12/15 10:33:45;;;;;;;;;;;2.60;99.90;;;;;;5060390;28;19943;-83
2023/12/15 10:36:12;;;;;;;;;;;2.60;99.90;;;;;;5059172;28;19960;-83
2023/12/15 10:38:37;;;;;;;;;;;2.60;99.90;;;;;;5058862;28;19964;-83
2023/12/15 10:41:04;;;;;;;;;;;2.70;99.90;;;;;;5056925;28;19924;-81
2023/12/15 10:43:30;;;;;;;;;;;2.80;99.90;;;;;;5055885;28;19917;-83
2023/12/15 10:45:56;;;;;;;;;;;2.70;99.90;;;;;;5054205;28;19919;-82
2023/12/15 10:48:24;;;;;;;;;;;2.80;99.90;;;;;;5056022;28;19963;-82
2023/12/15 10:50:52;;;;;;;;;;;2.80;99.90;;;;;;5056609;28;19982;-82
2023/12/15 10:53:19;;;;;;;;;;;2.90;99.90;;;;;;5056112;28;19921;-83
2023/12/15 10:55:46;;;;;;;;;;;2.90;99.90;;;;;;5067509;28;19935;-80
2023/12/15 10:58:12;;;;;;;;;;;3.00;99.90;;;;;;5058278;28;20007;-83
2023/12/15 11:00:38;;;;;;;;;;;3.00;99.90;;;;;;5054730;28;19988;-81
2023/12/15 11:03:05;;;;;;;;;;;3.10;99.90;;;;;;5060650;28;21517;-83
2023/12/15 11:05:32;;;;;;;;;;;3.10;99.90;;;;;;5055623;28;20000;-82
2023/12/15 11:07:59;;;;;;;;;;;3.10;99.90;;;;;;5055578;28;19913;-83
2023/12/15 11:10:24;;;;;;;;;;;3.20;99.90;;;;;;5056905;28;20380;-83
2023/12/15 11:12:52;;;;;;;;;;;3.20;99.90;;;;;;5058148;28;19967;-82
2023/12/15 11:15:18;;;;;;;;;;;3.20;99.90;;;;;;5057327;28;19919;-83
2023/12/15 11:17:47;;;;;;;;;;;3.30;99.90;;;;;;5056297;28;20327;-83
2023/12/15 11:20:24;;;;;;;;;;;3.20;99.90;;;;;;5038798;28;19925;-81
2023/12/15 11:22:56;;;;;;;;;;;3.20;99.90;;;;;;5052964;28;19952;-83
2023/12/15 11:25:25;;;;;;;;;;;3.20;99.90;;;;;;5053521;28;19913;-82
2023/12/15 11:28:08;;;;;;;;;;;3.30;99.90;;;;;;5058890;28;19919;-82
2023/12/15 11:30:36;;;;;;;;;;;3.30;99.90;;;;;;5039321;28;19971;-83
2023/12/15 11:33:24;;;;;;;;;;;3.40;99.90;;;;;;5052809;28;20427;-82
2023/12/15 11:35:53;;;;;;;;;;;3.40;99.90;;;;;;5056497;28;19923;-81
2023/12/15 11:38:20;;;;;;;;;;;3.40;99.90;;;;;;5055409;28;19913;-82
2023/12/15 11:40:48;;;;;;;;;;;3.40;99.90;;;;;;5054707;28;19912;-82
2023/12/15 11:43:14;;;;;;;;;;;3.50;99.90;;;;;;5053768;28;19924;-82
2023/12/15 11:45:41;;;;;;;;;;;3.50;99.90;;;;;;5049038;28;19913;-82
2023/12/15 11:48:10;;;;;;;;;;;3.50;99.90;;;;;;5035972;28;19924;-81
2023/12/15 11:50:36;;;;;;;;;;;3.50;99.90;;;;;;5051843;28;19912;-81
2023/12/15 11:53:05;;;;;;;;;;;3.50;99.90;;;;;;5052698;28;19913;-82
2023/12/15 11:55:30;;;;;;;;;;;3.50;99.90;;;;;;5053041;28;19920;-82
2023/12/15 11:57:56;;;;;;;;;;;3.60;99.90;;;;;;5053236;28;19912;-81
2023/12/15 12:00:22;;;;;;;;;;;3.60;99.90;;;;;;5053922;28;19921;-83
2023/12/15 12:02:48;;;;;;;;;;;3.60;99.90;;;;;;5051850;28;19917;-82
2023/12/15 12:05:14;;;;;;;;;;;3.60;99.90;;;;;;5052934;28;19974;-82
2023/12/15 12:07:40;;;;;;;;;;;3.70;99.90;;;;;;5054966;28;20384;-82
2023/12/15 12:10:06;;;;;;;;;;;3.70;99.90;;;;;;5057233;28;19920;-82
2023/12/15 12:12:32;;;;;;;;;;;3.80;99.90;;;;;;5057907;28;19917;-84
2023/12/15 12:15:16;;;;;;;;;;;3.80;99.90;;;;;;5052014;28;19920;-81
2023/12/15 12:17:42;;;;;;;;;;;3.80;99.90;;;;;;5047099;28;20369;-81
2023/12/15 12:20:11;;;;;;;;;;;3.70;99.90;;;;;;5050960;28;20031;-80
2023/12/15 12:22:40;;;;;;;;;;;3.70;99.90;;;;;;5067270;28;20574;-80
2023/12/15 12:25:06;;;;;;;;;;;3.80;99.90;;;;;;5053354;28;19917;-80
2023/12/15 12:27:33;;;;;;;;;;;3.70;99.90;;;;;;5051625;28;20014;-81
2023/12/15 12:29:59;;;;;;;;;;;3.70;99.90;;;;;;5052039;28;19917;-80
2023/12/15 12:32:25;;;;;;;;;;;3.70;99.90;;;;;;5054140;28;19920;-80
2023/12/15 12:34:51;;;;;;;;;;;3.70;99.90;;;;;;5066408;28;19912;-81
2023/12/15 12:37:17;;;;;;;;;;;3.70;99.90;;;;;;5056732;28;20280;-80
2023/12/15 12:39:42;;;;;;;;;;;3.70;99.90;;;;;;5060809;28;19936;-80
2023/12/15 12:42:08;;;;;;;;;;;3.70;99.90;;;;;;5052153;28;20015;-80
2023/12/15 12:44:34;;;;;;;;;;;3.70;99.90;;;;;;5055166;28;19928;-80
2023/12/15 12:47:00;;;;;;;;;;;3.70;99.90;;;;;;5055625;28;19924;-81
2023/12/15 12:49:26;;;;;;;;;;;3.70;99.90;;;;;;5051948;28;19974;-83
2023/12/15 12:51:52;;;;;;;;;;;3.70;99.90;;;;;;5049555;28;20316;-82
2023/12/15 12:54:18;;;;;;;;;;;3.60;99.90;;;;;;5046781;28;20257;-81
2023/12/15 12:56:43;;;;;;;;;;;3.60;99.90;;;;;;5052120;28;20018;-82
2023/12/15 12:59:10;;;;;;;;;;;3.60;99.90;;;;;;5054571;28;19917;-83
2023/12/15 13:01:36;;;;;;;;;;;3.60;99.90;;;;;;5046274;28;19944;-83
2023/12/15 13:04:02;;;;;;;;;;;3.60;99.90;;;;;;5056086;28;19963;-82
2023/12/15 13:06:28;;;;;;;;;;;3.60;99.90;;;;;;5050979;28;19934;-82
2023/12/15 13:08:53;;;;;;;;;;;3.60;99.90;;;;;;5059361;28;19952;-82
2023/12/15 13:11:19;;;;;;;;;;;3.60;99.90;;;;;;5060662;28;19913;-81
2023/12/15 13:13:44;;;;;;;;;;;3.60;99.90;;;;;;5052169;28;19943;-81
2023/12/15 13:16:11;;;;;;;;;;;3.50;99.90;;;;;;5053808;28;19916;-80
2023/12/15 13:18:36;;;;;;;;;;;3.50;99.90;;;;;;5048738;28;19956;-81
2023/12/15 13:21:02;;;;;;;;;;;3.50;99.90;;;;;;5054792;28;19948;-80
2023/12/15 13:23:28;;;;;;;;;;;3.60;99.90;;;;;;5056384;28;19917;-82
2023/12/15 13:25:54;;;;;;;;;;;3.60;99.90;;;;;;5057306;28;19913;-83
2023/12/15 13:28:20;;;;;;;;;;;3.60;99.90;;;;;;5058309;28;19921;-83
2023/12/15 13:30:46;;;;;;;;;;;3.50;99.90;;;;;;5058425;28;19913;-83
2023/12/15 13:33:12;;;;;;;;;;;3.60;99.90;;;;;;5054513;28;19962;-82
2023/12/15 13:35:38;;;;;;;;;;;3.60;99.90;;;;;;5052491;28;19913;-82
2023/12/15 13:38:04;;;;;;;;;;;3.60;99.90;;;;;;5059705;28;20384;-83
2023/12/15 13:40:30;;;;;;;;;;;3.60;99.90;;;;;;5058270;28;20511;-84
2023/12/15 13:42:56;;;;;;;;;;;3.60;99.90;;;;;;5048834;28;19917;-82
2023/12/15 13:45:22;;;;;;;;;;;3.60;99.90;;;;;;5055504;28;20004;-83
2023/12/15 13:47:48;;;;;;;;;;;3.60;99.90;;;;;;5059578;28;19921;-82
2023/12/15 13:50:15;;;;;;;;;;;3.50;99.90;;;;;;5054665;28;19930;-83
2023/12/15 13:52:41;;;;;;;;;;;3.60;99.90;;;;;;5033935;28;19917;-83
2023/12/15 13:55:07;;;;;;;;;;;3.60;99.90;;;;;;5053333;28;20465;-82
2023/12/15 13:57:33;;;;;;;;;;;3.60;99.90;;;;;;5054755;28;19920;-82
2023/12/15 13:59:58;;;;;;;;;;;3.60;99.90;;;;;;5056290;28;19913;-82
2023/12/15 14:02:24;;;;;;;;;;;3.60;99.90;;;;;;5055321;28;19917;-81
2023/12/15 14:04:51;;;;;;;;;;;3.60;99.90;;;;;;5060934;28;19999;-82
2023/12/15 14:07:16;;;;;;;;;;;3.60;99.90;;;;;;5056770;28;20002;-82
2023/12/15 14:09:42;;;;;;;;;;;3.60;99.90;;;;;;5063901;28;19912;-82
2023/12/15 14:12:07;;;;;;;;;;;3.60;99.90;;;;;;5050858;28;19923;-82
2023/12/15 14:14:33;;;;;;;;;;;3.60;99.90;;;;;;5052073;28;19926;-82
2023/12/15 14:16:59;;;;;;;;;;;3.70;99.90;;;;;;5050064;28;20274;-83
2023/12/15 14:19:24;;;;;;;;;;;3.70;99.90;;;;;;5051260;28;20015;-82
2023/12/15 14:21:51;;;;;;;;;;;3.60;99.90;;;;;;5053765;28;19917;-81
2023/12/15 14:24:17;;;;;;;;;;;3.60;99.90;;;;;;5054054;28;20380;-81
2023/12/15 14:26:43;;;;;;;;;;;3.60;99.90;;;;;;5049656;28;19923;-81